createdAt,value
2023-02-25T00:03:09.617Z,1003.04
2023-02-25T00:08:10.770Z,1002.95
2023-02-25T00:13:18.090Z,1003.11
2023-02-25T00:18:11.940Z,1003.01
2023-02-25T00:23:13.088Z,1002.93
2023-02-25T00:28:15.278Z,1003.01
2023-02-25T00:33:14.509Z,1003.12
2023-02-25T00:38:16.382Z,1003.50
2023-02-25T00:43:15.851Z,1003.58
2023-02-25T00:48:17.000Z,1003.65
2023-02-25T00:53:18.104Z,1003.70
2023-02-25T00:58:20.619Z,1003.75
2023-02-25T01:03:19.800Z,1003.57
2023-02-25T01:08:21.081Z,1003.34
2023-02-25T01:13:22.294Z,1003.32
2023-02-25T01:18:23.521Z,1003.55
2023-02-25T01:23:24.676Z,1003.57
2023-02-25T01:28:25.852Z,1003.53
2023-02-25T01:33:26.962Z,1003.40
2023-02-25T01:38:29.099Z,1003.36
2023-02-25T01:43:28.283Z,1003.47
2023-02-25T01:48:29.450Z,1003.47
2023-02-25T01:53:30.567Z,1003.71
2023-02-25T01:58:32.708Z,1003.82
2023-02-25T02:03:31.841Z,1003.83
2023-02-25T02:08:32.988Z,1003.71
2023-02-25T02:13:34.154Z,1003.65
2023-02-25T02:18:35.681Z,1004.03
2023-02-25T02:23:35.193Z,1003.89
2023-02-25T02:28:34.374Z,1003.82
2023-02-25T02:33:35.596Z,1003.95
2023-02-25T02:38:36.793Z,1003.91
2023-02-25T02:43:38.017Z,1003.89
2023-02-25T02:48:39.235Z,1003.87
2023-02-25T02:53:40.386Z,1003.73
2023-02-25T02:58:41.518Z,1003.87
2023-02-25T03:03:42.681Z,1003.89
2023-02-25T03:08:43.924Z,1004.11
2023-02-25T03:13:45.177Z,1004.17
2023-02-25T03:18:46.347Z,1004.12
2023-02-25T03:23:47.516Z,1004.21
2023-02-25T03:28:48.640Z,1004.28
2023-02-25T03:33:49.804Z,1004.33
2023-02-25T03:38:50.924Z,1004.31
2023-02-25T03:43:53.037Z,1004.51
2023-02-25T03:48:52.237Z,1004.34
2023-02-25T03:53:53.389Z,1004.47
2023-02-25T03:58:54.612Z,1004.52
2023-02-25T04:03:55.839Z,1004.56
2023-02-25T04:08:56.990Z,1004.58
2023-02-25T04:13:58.242Z,1004.55
2023-02-25T04:18:59.363Z,1004.66
2023-02-25T04:24:00.484Z,1004.68
2023-02-25T04:29:01.680Z,1004.81
2023-02-25T04:34:02.852Z,1004.77
2023-02-25T04:39:03.990Z,1004.70
2023-02-25T04:44:05.154Z,1004.65
2023-02-25T04:49:06.291Z,1004.67
2023-02-25T04:54:07.452Z,1004.59
2023-02-25T04:59:08.616Z,1004.48
2023-02-25T05:04:09.784Z,1004.42
2023-02-25T05:09:10.522Z,1004.48
2023-02-25T05:14:11.768Z,1004.52
2023-02-25T05:19:12.937Z,1004.54
2023-02-25T05:24:14.058Z,1004.62
2023-02-25T05:29:15.240Z,1004.66
2023-02-25T05:34:16.372Z,1004.61
2023-02-25T05:39:17.500Z,1004.59
2023-02-25T05:44:18.704Z,1004.52
2023-02-25T05:49:19.843Z,1004.54
2023-02-25T05:54:20.971Z,1004.53
2023-02-25T05:59:22.154Z,1004.56
2023-02-25T06:04:23.319Z,1004.53
2023-02-25T06:09:24.468Z,1004.55
2023-02-25T06:14:25.610Z,1004.55
2023-02-25T06:19:26.799Z,1004.62
2023-02-25T06:24:28.014Z,1004.56
2023-02-25T06:29:30.162Z,1004.67
2023-02-25T06:34:30.296Z,1004.65
2023-02-25T06:39:29.422Z,1004.76
2023-02-25T06:44:30.583Z,1004.78
2023-02-25T06:49:31.825Z,1004.86
2023-02-25T06:54:31.979Z,1004.79
2023-02-25T06:59:32.127Z,1004.97
2023-02-25T07:04:33.449Z,1004.95
2023-02-25T07:09:34.714Z,1004.89
2023-02-25T07:14:35.903Z,1004.82
2023-02-25T07:19:37.174Z,1004.83
2023-02-25T07:24:39.337Z,1004.83
2023-02-25T07:29:39.546Z,1004.73
2023-02-25T07:34:38.656Z,1004.74
2023-02-25T07:39:39.831Z,1004.80
2023-02-25T07:44:41.940Z,1004.98
2023-02-25T07:49:41.107Z,1005.08
2023-02-25T07:54:43.314Z,1005.15
2023-02-25T07:59:42.462Z,1005.12
2023-02-25T08:04:43.641Z,1005.08
2023-02-25T08:09:45.775Z,1005.02
2023-02-25T08:14:44.899Z,1005.04
2023-02-25T08:19:46.016Z,1004.96
2023-02-25T08:24:47.180Z,1004.90
2023-02-25T08:29:48.334Z,1004.81
2023-02-25T08:34:49.450Z,1004.75
2023-02-25T08:39:50.581Z,1004.79
2023-02-25T08:44:51.774Z,1004.67
2023-02-25T08:49:52.922Z,1004.79
2023-02-25T08:54:55.109Z,1004.74
2023-02-25T08:59:54.251Z,1004.74
2023-02-25T09:04:55.421Z,1004.65
2023-02-25T09:09:58.620Z,1004.72
2023-02-25T09:14:58.750Z,1004.70
2023-02-25T09:19:59.857Z,1004.63
2023-02-25T09:24:59.016Z,1004.58
2023-02-25T09:30:00.206Z,1004.60
2023-02-25T09:35:01.538Z,1004.63
2023-02-25T09:40:02.899Z,1004.63
2023-02-25T09:45:04.015Z,1004.60
2023-02-25T09:50:05.246Z,1004.55
2023-02-25T09:55:07.395Z,1004.58
2023-02-25T10:00:06.574Z,1004.57
2023-02-25T10:05:07.756Z,1004.50
2023-02-25T10:10:08.877Z,1004.52
2023-02-25T10:15:11.004Z,1004.52
2023-02-25T10:20:11.118Z,1004.61
2023-02-25T10:25:11.322Z,1004.55
2023-02-25T10:30:11.449Z,1004.50
2023-02-25T10:35:10.580Z,1004.44
2023-02-25T10:40:11.715Z,1004.42
2023-02-25T10:45:15.809Z,1004.41
2023-02-25T10:50:12.978Z,1004.35
2023-02-25T10:55:15.134Z,1004.25
2023-02-25T11:00:14.308Z,1004.27
2023-02-25T11:05:16.397Z,1004.17
2023-02-25T11:10:15.571Z,1004.13
2023-02-25T11:15:16.688Z,1004.14
2023-02-25T11:20:18.793Z,1004.02
2023-02-25T11:25:18.905Z,1003.95
2023-02-25T11:30:18.133Z,1003.93
2023-02-25T11:35:19.325Z,1003.87
2023-02-25T11:40:22.440Z,1003.87
2023-02-25T11:45:21.578Z,1003.79
2023-02-25T11:50:22.797Z,1003.73
2023-02-25T11:55:24.915Z,1003.67
2023-02-25T12:00:24.113Z,1003.68
2023-02-25T12:05:26.425Z,1003.66
2023-02-25T12:10:25.651Z,1003.61
2023-02-25T12:15:26.897Z,1003.66
2023-02-25T12:20:27.031Z,1003.64
2023-02-25T12:25:28.138Z,1003.68
2023-02-25T12:30:29.291Z,1003.77
2023-02-25T12:35:30.423Z,1003.87
2023-02-25T12:40:31.623Z,1003.94
2023-02-25T12:45:31.971Z,1003.91
2023-02-25T12:50:33.170Z,1003.91
2023-02-25T12:55:34.372Z,1003.90
2023-02-25T13:00:35.033Z,1004.04
2023-02-25T13:05:37.267Z,1004.07
2023-02-25T13:10:37.398Z,1004.11
2023-02-25T13:15:37.533Z,1004.10
2023-02-25T13:20:37.694Z,1004.16
2023-02-25T13:25:37.820Z,1004.12
2023-02-25T13:30:36.972Z,1004.04
2023-02-25T13:35:39.134Z,1004.04
2023-02-25T13:40:39.423Z,1004.16
2023-02-25T13:45:38.561Z,1004.26
2023-02-25T13:50:39.708Z,1004.24
2023-02-25T13:55:41.813Z,1004.38
2023-02-25T14:00:40.970Z,1004.42
2023-02-25T14:05:42.134Z,1004.50
2023-02-25T14:10:43.301Z,1004.43
2023-02-25T14:15:44.499Z,1004.61
2023-02-25T14:20:47.752Z,1004.61
2023-02-25T14:25:48.063Z,1004.67
2023-02-25T14:30:48.423Z,1004.67
2023-02-25T14:35:48.834Z,1004.64
2023-02-25T14:40:48.126Z,1004.79
2023-02-25T14:45:49.376Z,1004.82
2023-02-25T14:50:51.082Z,1004.78
2023-02-25T14:55:52.561Z,1004.85
2023-02-25T15:00:51.168Z,1004.79
2023-02-25T15:05:51.451Z,1004.74
2023-02-25T15:10:51.668Z,1004.67
2023-02-25T15:15:51.100Z,1004.61
2023-02-25T15:20:51.547Z,1004.62
2023-02-25T15:25:51.293Z,1004.61
2023-02-25T15:30:50.561Z,1004.64
2023-02-25T15:35:52.934Z,1004.60
2023-02-25T15:40:52.433Z,1004.61
2023-02-25T15:45:51.756Z,1004.52
2023-02-25T15:50:52.990Z,1004.72
2023-02-25T15:55:54.403Z,1004.69
2023-02-25T16:00:54.246Z,1004.71
2023-02-25T16:05:55.715Z,1004.73
2023-02-25T16:10:56.992Z,1004.82
2023-02-25T16:15:56.416Z,1004.86
2023-02-25T16:20:58.881Z,1004.93
2023-02-25T16:25:57.176Z,1004.98
2023-02-25T16:30:56.621Z,1004.97
2023-02-25T16:36:06.722Z,1005.08
2023-02-25T16:40:56.123Z,1005.05
2023-02-25T16:45:57.551Z,1005.17
2023-02-25T16:50:56.933Z,1005.22
2023-02-25T16:55:57.359Z,1005.28
2023-02-25T17:00:58.635Z,1005.33
2023-02-25T17:05:59.806Z,1005.33
2023-02-25T17:11:01.054Z,1005.30
2023-02-25T17:16:02.338Z,1005.38
2023-02-25T17:21:03.759Z,1005.42
2023-02-25T17:26:06.149Z,1005.54
2023-02-25T17:31:09.068Z,1005.57
2023-02-25T17:36:06.609Z,1005.55
2023-02-25T17:41:09.068Z,1005.61
2023-02-25T17:46:09.539Z,1005.67
2023-02-25T17:51:08.981Z,1005.73
2023-02-25T17:56:10.450Z,1005.72
2023-02-25T18:01:09.941Z,1005.73
2023-02-25T18:06:08.390Z,1005.82
2023-02-25T18:11:09.627Z,1005.90
2023-02-25T18:16:11.052Z,1005.80
2023-02-25T18:21:10.241Z,1005.77
2023-02-25T18:26:13.648Z,1005.80
2023-02-25T18:31:13.203Z,1005.76
2023-02-25T18:36:11.596Z,1005.71
2023-02-25T18:41:14.060Z,1005.74
2023-02-25T18:46:13.327Z,1005.77
2023-02-25T18:51:18.746Z,1005.78
2023-02-25T18:56:13.976Z,1005.67
2023-02-25T19:01:16.500Z,1005.68
2023-02-25T19:06:16.082Z,1005.75
2023-02-25T19:11:16.293Z,1005.66
2023-02-25T19:16:16.742Z,1005.66
2023-02-25T19:21:17.094Z,1005.63
2023-02-25T19:26:16.640Z,1005.66
2023-02-25T19:31:17.222Z,1005.72
2023-02-25T19:36:16.752Z,1005.65
2023-02-25T19:41:17.251Z,1005.72
2023-02-25T19:46:16.573Z,1005.74
2023-02-25T19:51:19.150Z,1005.68
2023-02-25T19:56:18.657Z,1005.71
2023-02-25T20:01:17.996Z,1005.66
2023-02-25T20:06:20.400Z,1005.74
2023-02-25T20:11:23.538Z,1005.77
2023-02-25T20:16:22.062Z,1005.81
2023-02-25T20:21:22.651Z,1005.84
2023-02-25T20:26:22.426Z,1005.82
2023-02-25T20:31:22.276Z,1005.81
2023-02-25T20:36:22.176Z,1005.81
2023-02-25T20:41:21.931Z,1005.82
2023-02-25T20:46:22.731Z,1005.83
2023-02-25T20:51:23.334Z,1005.77
2023-02-25T20:56:23.111Z,1005.78
2023-02-25T21:01:24.097Z,1005.72
2023-02-25T21:06:24.505Z,1005.65
2023-02-25T21:11:25.537Z,1005.66
2023-02-25T21:16:26.339Z,1005.81
2023-02-25T21:21:26.984Z,1005.79
2023-02-25T21:26:27.203Z,1005.75
2023-02-25T21:31:27.556Z,1005.69
2023-02-25T21:36:27.898Z,1005.73
2023-02-25T21:41:27.314Z,1005.79
2023-02-25T21:46:26.926Z,1005.78
2023-02-25T21:51:27.298Z,1005.77
2023-02-25T21:56:27.465Z,1005.90
2023-02-25T22:01:26.859Z,1005.84
2023-02-25T22:06:25.479Z,1005.82
2023-02-25T22:11:27.723Z,1005.83
2023-02-25T22:16:27.394Z,1005.78
2023-02-25T22:21:26.866Z,1005.82
2023-02-25T22:26:28.189Z,1005.75
2023-02-25T22:31:29.631Z,1005.72
2023-02-25T22:36:31.884Z,1005.66
2023-02-25T22:41:32.086Z,1005.74
2023-02-25T22:46:31.295Z,1005.77
2023-02-25T22:51:32.404Z,1005.66
2023-02-25T22:56:34.715Z,1005.76
2023-02-25T23:01:33.898Z,1005.79
2023-02-25T23:06:45.216Z,1005.77
2023-02-25T23:11:36.056Z,1005.82
2023-02-25T23:16:37.327Z,1005.93
2023-02-25T23:21:38.592Z,1006.13
2023-02-25T23:26:39.843Z,1006.28
2023-02-25T23:31:41.092Z,1006.34
2023-02-25T23:36:43.306Z,1006.38
2023-02-25T23:41:42.453Z,1006.43
2023-02-25T23:46:43.558Z,1006.44
2023-02-25T23:51:45.768Z,1006.42
2023-02-25T23:56:44.925Z,1006.43
